sensor_id;sensor_type;location;lat;lon;timestamp;P1;durP1;ratioP1;P2;durP2;ratioP2
58758;SDS011;46777;47.482;19.054;2022-12-07T00:02:38;19.10;;;17.20;;
58758;SDS011;46777;47.482;19.054;2022-12-07T00:05:23;18.15;;;16.35;;
58758;SDS011;46777;47.482;19.054;2022-12-07T00:08:07;19.33;;;17.30;;
58758;SDS011;46777;47.482;19.054;2022-12-07T00:10:51;20.17;;;18.20;;
58758;SDS011;46777;47.482;19.054;2022-12-07T00:13:36;18.48;;;16.67;;
58758;SDS011;46777;47.482;19.054;2022-12-07T00:16:22;18.58;;;16.73;;
58758;SDS011;46777;47.482;19.054;2022-12-07T00:19:06;17.92;;;16.15;;
58758;SDS011;46777;47.482;19.054;2022-12-07T00:21:50;18.13;;;16.38;;
58758;SDS011;46777;47.482;19.054;2022-12-07T00:24:35;18.90;;;17.02;;
58758;SDS011;46777;47.482;19.054;2022-12-07T00:27:19;18.85;;;16.90;;
58758;SDS011;46777;47.482;19.054;2022-12-07T00:30:03;18.20;;;16.40;;
58758;SDS011;46777;47.482;19.054;2022-12-07T00:32:48;18.10;;;16.30;;
58758;SDS011;46777;47.482;19.054;2022-12-07T00:35:32;17.50;;;15.80;;
58758;SDS011;46777;47.482;19.054;2022-12-07T00:38:17;18.73;;;16.88;;
58758;SDS011;46777;47.482;19.054;2022-12-07T00:41:02;18.08;;;16.30;;
58758;SDS011;46777;47.482;19.054;2022-12-07T00:43:48;16.85;;;15.18;;
58758;SDS011;46777;47.482;19.054;2022-12-07T00:46:32;18.67;;;16.88;;
58758;SDS011;46777;47.482;19.054;2022-12-07T00:49:16;19.48;;;17.58;;
58758;SDS011;46777;47.482;19.054;2022-12-07T00:52:00;19.20;;;17.33;;
58758;SDS011;46777;47.482;19.054;2022-12-07T00:54:45;18.80;;;16.98;;
58758;SDS011;46777;47.482;19.054;2022-12-07T00:57:30;18.52;;;16.73;;
58758;SDS011;46777;47.482;19.054;2022-12-07T01:00:14;19.27;;;17.33;;
58758;SDS011;46777;47.482;19.054;2022-12-07T01:02:59;17.83;;;15.82;;
58758;SDS011;46777;47.482;19.054;2022-12-07T01:05:51;17.67;;;15.88;;
58758;SDS011;46777;47.482;19.054;2022-12-07T01:08:35;17.17;;;15.38;;
58758;SDS011;46777;47.482;19.054;2022-12-07T01:11:21;16.65;;;15.05;;
58758;SDS011;46777;47.482;19.054;2022-12-07T01:14:05;18.35;;;16.55;;
58758;SDS011;46777;47.482;19.054;2022-12-07T01:16:49;17.85;;;16.02;;
58758;SDS011;46777;47.482;19.054;2022-12-07T01:19:33;18.83;;;16.02;;
58758;SDS011;46777;47.482;19.054;2022-12-07T01:22:18;19.00;;;17.20;;
58758;SDS011;46777;47.482;19.054;2022-12-07T01:25:02;17.90;;;16.20;;
58758;SDS011;46777;47.482;19.054;2022-12-07T01:27:47;18.33;;;16.60;;
58758;SDS011;46777;47.482;19.054;2022-12-07T01:30:31;18.90;;;16.90;;
58758;SDS011;46777;47.482;19.054;2022-12-07T01:33:15;18.45;;;16.65;;
58758;SDS011;46777;47.482;19.054;2022-12-07T01:36:00;18.48;;;16.55;;
58758;SDS011;46777;47.482;19.054;2022-12-07T01:38:45;18.83;;;17.13;;
58758;SDS011;46777;47.482;19.054;2022-12-07T01:41:32;18.20;;;16.40;;
58758;SDS011;46777;47.482;19.054;2022-12-07T01:44:20;18.35;;;16.55;;
58758;SDS011;46777;47.482;19.054;2022-12-07T01:47:06;17.30;;;15.52;;
58758;SDS011;46777;47.482;19.054;2022-12-07T01:49:50;18.33;;;16.63;;
58758;SDS011;46777;47.482;19.054;2022-12-07T01:52:34;17.85;;;16.15;;
58758;SDS011;46777;47.482;19.054;2022-12-07T01:55:19;17.67;;;15.95;;
58758;SDS011;46777;47.482;19.054;2022-12-07T01:58:04;18.23;;;16.52;;
58758;SDS011;46777;47.482;19.054;2022-12-07T02:00:48;17.73;;;16.13;;
58758;SDS011;46777;47.482;19.054;2022-12-07T02:03:37;17.40;;;15.68;;
58758;SDS011;46777;47.482;19.054;2022-12-07T02:06:23;18.30;;;16.42;;
58758;SDS011;46777;47.482;19.054;2022-12-07T02:09:08;18.23;;;16.42;;
58758;SDS011;46777;47.482;19.054;2022-12-07T02:11:52;17.92;;;16.13;;
58758;SDS011;46777;47.482;19.054;2022-12-07T02:14:37;18.02;;;16.13;;
58758;SDS011;46777;47.482;19.054;2022-12-07T02:17:28;17.38;;;15.68;;
58758;SDS011;46777;47.482;19.054;2022-12-07T02:23:46;17.30;;;15.70;;
58758;SDS011;46777;47.482;19.054;2022-12-07T02:26:43;16.85;;;15.25;;
58758;SDS011;46777;47.482;19.054;2022-12-07T02:35:06;17.27;;;15.57;;
58758;SDS011;46777;47.482;19.054;2022-12-07T02:40:54;17.90;;;16.15;;
58758;SDS011;46777;47.482;19.054;2022-12-07T02:43:57;18.60;;;16.77;;
58758;SDS011;46777;47.482;19.054;2022-12-07T02:46:44;16.48;;;14.88;;
58758;SDS011;46777;47.482;19.054;2022-12-07T02:49:30;17.08;;;15.38;;
58758;SDS011;46777;47.482;19.054;2022-12-07T02:52:15;17.48;;;15.80;;
58758;SDS011;46777;47.482;19.054;2022-12-07T02:54:59;17.67;;;15.88;;
58758;SDS011;46777;47.482;19.054;2022-12-07T02:57:48;16.83;;;15.25;;
58758;SDS011;46777;47.482;19.054;2022-12-07T03:00:41;16.90;;;15.30;;
58758;SDS011;46777;47.482;19.054;2022-12-07T03:03:28;16.17;;;14.68;;
58758;SDS011;46777;47.482;19.054;2022-12-07T03:06:16;16.80;;;15.30;;
58758;SDS011;46777;47.482;19.054;2022-12-07T03:09:10;17.13;;;15.52;;
58758;SDS011;46777;47.482;19.054;2022-12-07T03:12:08;16.55;;;14.88;;
58758;SDS011;46777;47.482;19.054;2022-12-07T03:14:59;16.80;;;15.20;;
58758;SDS011;46777;47.482;19.054;2022-12-07T03:17:44;16.98;;;15.38;;
58758;SDS011;46777;47.482;19.054;2022-12-07T03:20:29;17.90;;;16.10;;
58758;SDS011;46777;47.482;19.054;2022-12-07T03:23:14;18.20;;;16.50;;
58758;SDS011;46777;47.482;19.054;2022-12-07T03:26:00;18.98;;;17.05;;
58758;SDS011;46777;47.482;19.054;2022-12-07T03:28:46;18.88;;;17.08;;
58758;SDS011;46777;47.482;19.054;2022-12-07T03:31:33;18.58;;;16.77;;
58758;SDS011;46777;47.482;19.054;2022-12-07T03:37:12;18.52;;;16.73;;
58758;SDS011;46777;47.482;19.054;2022-12-07T03:40:05;19.27;;;17.38;;
58758;SDS011;46777;47.482;19.054;2022-12-07T03:42:51;19.88;;;18.05;;
58758;SDS011;46777;47.482;19.054;2022-12-07T03:45:40;19.50;;;17.60;;
58758;SDS011;46777;47.482;19.054;2022-12-07T03:48:27;18.35;;;16.65;;
58758;SDS011;46777;47.482;19.054;2022-12-07T03:56:59;17.52;;;15.82;;
58758;SDS011;46777;47.482;19.054;2022-12-07T03:59:45;16.70;;;15.00;;
58758;SDS011;46777;47.482;19.054;2022-12-07T04:02:30;16.60;;;14.93;;
58758;SDS011;46777;47.482;19.054;2022-12-07T04:05:14;15.98;;;14.50;;
58758;SDS011;46777;47.482;19.054;2022-12-07T04:07:58;15.60;;;14.20;;
58758;SDS011;46777;47.482;19.054;2022-12-07T04:10:43;18.75;;;16.92;;
58758;SDS011;46777;47.482;19.054;2022-12-07T04:13:27;18.85;;;17.15;;
58758;SDS011;46777;47.482;19.054;2022-12-07T04:16:11;19.77;;;17.92;;
58758;SDS011;46777;47.482;19.054;2022-12-07T04:18:55;20.60;;;18.50;;
58758;SDS011;46777;47.482;19.054;2022-12-07T04:21:40;20.35;;;18.38;;
58758;SDS011;46777;47.482;19.054;2022-12-07T04:24:24;21.25;;;19.15;;
58758;SDS011;46777;47.482;19.054;2022-12-07T04:27:09;21.45;;;19.35;;
58758;SDS011;46777;47.482;19.054;2022-12-07T04:29:53;21.98;;;19.95;;
58758;SDS011;46777;47.482;19.054;2022-12-07T04:32:39;22.20;;;19.98;;
58758;SDS011;46777;47.482;19.054;2022-12-07T04:35:23;21.85;;;19.65;;
58758;SDS011;46777;47.482;19.054;2022-12-07T04:38:08;22.83;;;20.73;;
58758;SDS011;46777;47.482;19.054;2022-12-07T04:40:52;21.10;;;19.00;;
58758;SDS011;46777;47.482;19.054;2022-12-07T04:43:36;23.05;;;20.65;;
58758;SDS011;46777;47.482;19.054;2022-12-07T04:46:20;22.48;;;20.25;;
58758;SDS011;46777;47.482;19.054;2022-12-07T04:49:05;22.27;;;20.00;;
58758;SDS011;46777;47.482;19.054;2022-12-07T04:51:49;24.27;;;21.77;;
58758;SDS011;46777;47.482;19.054;2022-12-07T04:54:34;22.75;;;20.58;;
58758;SDS011;46777;47.482;19.054;2022-12-07T04:57:18;23.35;;;21.13;;
58758;SDS011;46777;47.482;19.054;2022-12-07T05:00:02;23.27;;;21.02;;
58758;SDS011;46777;47.482;19.054;2022-12-07T05:02:47;24.33;;;21.70;;
58758;SDS011;46777;47.482;19.054;2022-12-07T05:05:31;24.23;;;21.77;;
58758;SDS011;46777;47.482;19.054;2022-12-07T05:08:15;24.33;;;22.02;;
58758;SDS011;46777;47.482;19.054;2022-12-07T05:11:00;24.55;;;22.05;;
58758;SDS011;46777;47.482;19.054;2022-12-07T05:13:45;23.38;;;21.08;;
58758;SDS011;46777;47.482;19.054;2022-12-07T05:16:29;25.17;;;22.77;;
58758;SDS011;46777;47.482;19.054;2022-12-07T05:19:13;24.70;;;22.25;;
58758;SDS011;46777;47.482;19.054;2022-12-07T05:21:57;22.95;;;20.73;;
58758;SDS011;46777;47.482;19.054;2022-12-07T05:24:42;24.45;;;21.98;;
58758;SDS011;46777;47.482;19.054;2022-12-07T05:27:26;23.85;;;21.65;;
58758;SDS011;46777;47.482;19.054;2022-12-07T05:30:10;25.08;;;22.52;;
58758;SDS011;46777;47.482;19.054;2022-12-07T05:32:55;19.90;;;18.00;;
58758;SDS011;46777;47.482;19.054;2022-12-07T05:35:39;20.95;;;19.00;;
58758;SDS011;46777;47.482;19.054;2022-12-07T05:38:24;18.00;;;16.40;;
58758;SDS011;46777;47.482;19.054;2022-12-07T05:41:09;17.40;;;15.68;;
58758;SDS011;46777;47.482;19.054;2022-12-07T05:44:15;19.38;;;17.55;;
58758;SDS011;46777;47.482;19.054;2022-12-07T05:47:00;19.98;;;18.08;;
58758;SDS011;46777;47.482;19.054;2022-12-07T05:49:44;21.60;;;19.50;;
58758;SDS011;46777;47.482;19.054;2022-12-07T05:52:28;24.88;;;22.48;;
58758;SDS011;46777;47.482;19.054;2022-12-07T05:55:13;24.95;;;22.45;;
58758;SDS011;46777;47.482;19.054;2022-12-07T05:57:57;25.20;;;22.73;;
58758;SDS011;46777;47.482;19.054;2022-12-07T06:01:07;25.33;;;22.90;;
58758;SDS011;46777;47.482;19.054;2022-12-07T06:03:51;24.40;;;21.92;;
58758;SDS011;46777;47.482;19.054;2022-12-07T06:06:36;25.20;;;22.70;;
58758;SDS011;46777;47.482;19.054;2022-12-07T06:09:21;21.83;;;19.63;;
58758;SDS011;46777;47.482;19.054;2022-12-07T06:12:06;23.25;;;21.05;;
58758;SDS011;46777;47.482;19.054;2022-12-07T06:15:09;24.38;;;21.98;;
58758;SDS011;46777;47.482;19.054;2022-12-07T06:17:54;25.08;;;22.77;;
58758;SDS011;46777;47.482;19.054;2022-12-07T06:20:38;24.35;;;22.10;;
58758;SDS011;46777;47.482;19.054;2022-12-07T06:23:23;23.63;;;21.40;;
58758;SDS011;46777;47.482;19.054;2022-12-07T06:26:07;23.63;;;21.42;;
58758;SDS011;46777;47.482;19.054;2022-12-07T06:28:51;23.33;;;21.20;;
58758;SDS011;46777;47.482;19.054;2022-12-07T06:31:36;23.23;;;21.00;;
58758;SDS011;46777;47.482;19.054;2022-12-07T06:34:20;23.55;;;21.45;;
58758;SDS011;46777;47.482;19.054;2022-12-07T06:37:06;22.77;;;20.65;;
58758;SDS011;46777;47.482;19.054;2022-12-07T06:39:51;27.80;;;21.08;;
58758;SDS011;46777;47.482;19.054;2022-12-07T06:42:35;21.65;;;19.40;;
58758;SDS011;46777;47.482;19.054;2022-12-07T06:45:19;20.90;;;18.73;;
58758;SDS011;46777;47.482;19.054;2022-12-07T06:48:03;21.00;;;19.00;;
58758;SDS011;46777;47.482;19.054;2022-12-07T06:50:48;21.17;;;19.23;;
58758;SDS011;46777;47.482;19.054;2022-12-07T06:53:32;18.48;;;16.77;;
58758;SDS011;46777;47.482;19.054;2022-12-07T06:56:16;18.98;;;17.08;;
58758;SDS011;46777;47.482;19.054;2022-12-07T06:59:01;17.90;;;16.10;;
58758;SDS011;46777;47.482;19.054;2022-12-07T07:01:45;18.48;;;16.70;;
58758;SDS011;46777;47.482;19.054;2022-12-07T07:04:29;17.50;;;15.85;;
58758;SDS011;46777;47.482;19.054;2022-12-07T07:07:14;18.52;;;16.80;;
58758;SDS011;46777;47.482;19.054;2022-12-07T07:09:58;21.63;;;19.52;;
58758;SDS011;46777;47.482;19.054;2022-12-07T07:12:42;18.65;;;16.95;;
58758;SDS011;46777;47.482;19.054;2022-12-07T07:15:27;18.98;;;17.27;;
58758;SDS011;46777;47.482;19.054;2022-12-07T07:18:11;19.05;;;17.15;;
58758;SDS011;46777;47.482;19.054;2022-12-07T07:20:55;17.98;;;16.25;;
58758;SDS011;46777;47.482;19.054;2022-12-07T07:23:40;21.77;;;19.70;;
58758;SDS011;46777;47.482;19.054;2022-12-07T07:26:24;19.08;;;17.33;;
58758;SDS011;46777;47.482;19.054;2022-12-07T07:29:08;19.30;;;17.27;;
58758;SDS011;46777;47.482;19.054;2022-12-07T07:31:53;21.52;;;19.58;;
58758;SDS011;46777;47.482;19.054;2022-12-07T07:34:37;18.63;;;16.73;;
58758;SDS011;46777;47.482;19.054;2022-12-07T07:37:21;18.98;;;17.20;;
58758;SDS011;46777;47.482;19.054;2022-12-07T07:40:06;20.70;;;18.77;;
58758;SDS011;46777;47.482;19.054;2022-12-07T07:42:51;20.98;;;19.15;;
58758;SDS011;46777;47.482;19.054;2022-12-07T07:45:36;20.95;;;19.02;;
58758;SDS011;46777;47.482;19.054;2022-12-07T07:48:20;23.23;;;21.17;;
58758;SDS011;46777;47.482;19.054;2022-12-07T07:51:07;23.13;;;21.10;;
58758;SDS011;46777;47.482;19.054;2022-12-07T07:53:51;22.30;;;20.30;;
58758;SDS011;46777;47.482;19.054;2022-12-07T07:56:35;25.60;;;23.27;;
58758;SDS011;46777;47.482;19.054;2022-12-07T07:59:20;27.00;;;24.27;;
58758;SDS011;46777;47.482;19.054;2022-12-07T08:02:04;23.00;;;20.83;;
58758;SDS011;46777;47.482;19.054;2022-12-07T08:04:48;21.73;;;19.70;;
58758;SDS011;46777;47.482;19.054;2022-12-07T08:07:33;20.92;;;19.02;;
58758;SDS011;46777;47.482;19.054;2022-12-07T08:10:17;20.38;;;18.52;;
58758;SDS011;46777;47.482;19.054;2022-12-07T08:13:01;21.00;;;19.00;;
58758;SDS011;46777;47.482;19.054;2022-12-07T08:15:55;20.95;;;19.02;;
58758;SDS011;46777;47.482;19.054;2022-12-07T08:18:40;22.35;;;20.25;;
58758;SDS011;46777;47.482;19.054;2022-12-07T08:21:24;20.95;;;19.05;;
58758;SDS011;46777;47.482;19.054;2022-12-07T08:24:09;21.88;;;19.80;;
58758;SDS011;46777;47.482;19.054;2022-12-07T08:26:53;21.50;;;19.67;;
58758;SDS011;46777;47.482;19.054;2022-12-07T08:29:37;21.88;;;19.77;;
58758;SDS011;46777;47.482;19.054;2022-12-07T08:32:21;22.60;;;20.65;;
58758;SDS011;46777;47.482;19.054;2022-12-07T08:35:06;21.92;;;20.02;;
58758;SDS011;46777;47.482;19.054;2022-12-07T08:37:50;22.48;;;20.38;;
58758;SDS011;46777;47.482;19.054;2022-12-07T08:40:34;23.70;;;21.30;;
58758;SDS011;46777;47.482;19.054;2022-12-07T08:43:19;23.00;;;20.90;;
58758;SDS011;46777;47.482;19.054;2022-12-07T08:46:08;22.80;;;20.70;;
58758;SDS011;46777;47.482;19.054;2022-12-07T08:51:50;21.67;;;19.67;;
58758;SDS011;46777;47.482;19.054;2022-12-07T08:54:35;23.80;;;21.60;;
58758;SDS011;46777;47.482;19.054;2022-12-07T08:57:20;21.95;;;19.95;;
58758;SDS011;46777;47.482;19.054;2022-12-07T09:00:05;22.17;;;20.23;;
58758;SDS011;46777;47.482;19.054;2022-12-07T09:02:50;21.30;;;19.25;;
58758;SDS011;46777;47.482;19.054;2022-12-07T09:05:34;21.52;;;19.27;;
58758;SDS011;46777;47.482;19.054;2022-12-07T09:08:18;20.48;;;18.38;;
58758;SDS011;46777;47.482;19.054;2022-12-07T09:11:03;19.10;;;17.50;;
58758;SDS011;46777;47.482;19.054;2022-12-07T09:13:47;17.38;;;15.80;;
58758;SDS011;46777;47.482;19.054;2022-12-07T09:16:32;17.77;;;16.17;;
58758;SDS011;46777;47.482;19.054;2022-12-07T09:19:16;16.88;;;15.30;;
58758;SDS011;46777;47.482;19.054;2022-12-07T09:22:00;17.48;;;15.90;;
58758;SDS011;46777;47.482;19.054;2022-12-07T09:24:45;16.50;;;14.95;;
58758;SDS011;46777;47.482;19.054;2022-12-07T09:27:30;17.00;;;15.40;;
58758;SDS011;46777;47.482;19.054;2022-12-07T09:30:14;18.45;;;16.67;;
58758;SDS011;46777;47.482;19.054;2022-12-07T09:32:58;15.50;;;13.90;;
58758;SDS011;46777;47.482;19.054;2022-12-07T09:35:46;13.75;;;12.52;;
58758;SDS011;46777;47.482;19.054;2022-12-07T09:38:31;14.02;;;12.73;;
58758;SDS011;46777;47.482;19.054;2022-12-07T09:41:17;14.10;;;12.88;;
58758;SDS011;46777;47.482;19.054;2022-12-07T09:44:05;12.60;;;11.50;;
58758;SDS011;46777;47.482;19.054;2022-12-07T09:46:50;13.25;;;12.13;;
58758;SDS011;46777;47.482;19.054;2022-12-07T09:49:37;12.05;;;11.00;;
58758;SDS011;46777;47.482;19.054;2022-12-07T09:52:25;13.00;;;11.90;;
58758;SDS011;46777;47.482;19.054;2022-12-07T09:55:11;11.73;;;10.63;;
58758;SDS011;46777;47.482;19.054;2022-12-07T09:57:57;10.90;;;9.90;;
58758;SDS011;46777;47.482;19.054;2022-12-07T10:00:41;10.70;;;9.80;;
58758;SDS011;46777;47.482;19.054;2022-12-07T10:03:27;11.82;;;10.68;;
58758;SDS011;46777;47.482;19.054;2022-12-07T10:06:12;10.57;;;9.68;;
58758;SDS011;46777;47.482;19.054;2022-12-07T10:08:57;11.48;;;10.30;;
58758;SDS011;46777;47.482;19.054;2022-12-07T10:12:01;11.55;;;10.43;;
58758;SDS011;46777;47.482;19.054;2022-12-07T10:17:40;17.58;;;15.98;;
58758;SDS011;46777;47.482;19.054;2022-12-07T10:20:27;18.13;;;16.15;;
58758;SDS011;46777;47.482;19.054;2022-12-07T10:23:15;11.80;;;10.80;;
58758;SDS011;46777;47.482;19.054;2022-12-07T10:26:17;15.75;;;13.50;;
58758;SDS011;46777;47.482;19.054;2022-12-07T10:29:20;14.30;;;13.00;;
58758;SDS011;46777;47.482;19.054;2022-12-07T10:34:50;13.82;;;12.68;;
58758;SDS011;46777;47.482;19.054;2022-12-07T10:37:39;13.90;;;12.60;;
58758;SDS011;46777;47.482;19.054;2022-12-07T10:40:26;13.93;;;12.55;;
58758;SDS011;46777;47.482;19.054;2022-12-07T10:54:40;11.80;;;10.80;;
58758;SDS011;46777;47.482;19.054;2022-12-07T10:57:29;11.50;;;10.40;;
58758;SDS011;46777;47.482;19.054;2022-12-07T11:00:23;13.93;;;12.52;;
58758;SDS011;46777;47.482;19.054;2022-12-07T11:23:23;12.02;;;11.00;;
58758;SDS011;46777;47.482;19.054;2022-12-07T11:31:45;12.57;;;11.38;;
58758;SDS011;46777;47.482;19.054;2022-12-07T11:37:38;12.20;;;11.20;;
58758;SDS011;46777;47.482;19.054;2022-12-07T11:40:35;11.98;;;10.98;;
58758;SDS011;46777;47.482;19.054;2022-12-07T11:46:05;12.52;;;11.48;;
58758;SDS011;46777;47.482;19.054;2022-12-07T11:48:55;12.90;;;11.70;;
58758;SDS011;46777;47.482;19.054;2022-12-07T11:51:42;12.32;;;11.02;;
58758;SDS011;46777;47.482;19.054;2022-12-07T11:54:28;12.02;;;10.95;;
58758;SDS011;46777;47.482;19.054;2022-12-07T11:58:01;12.30;;;11.20;;
58758;SDS011;46777;47.482;19.054;2022-12-07T12:00:18;12.32;;;11.23;;
58758;SDS011;46777;47.482;19.054;2022-12-07T12:03:05;11.82;;;10.82;;
58758;SDS011;46777;47.482;19.054;2022-12-07T12:05:53;11.90;;;10.80;;
58758;SDS011;46777;47.482;19.054;2022-12-07T12:08:55;16.80;;;15.20;;
58758;SDS011;46777;47.482;19.054;2022-12-07T12:18:17;13.38;;;12.18;;
58758;SDS011;46777;47.482;19.054;2022-12-07T12:26:20;12.10;;;11.00;;
58758;SDS011;46777;47.482;19.054;2022-12-07T12:29:05;11.82;;;10.85;;
58758;SDS011;46777;47.482;19.054;2022-12-07T12:32:12;11.90;;;10.80;;
58758;SDS011;46777;47.482;19.054;2022-12-07T12:35:02;11.00;;;10.00;;
58758;SDS011;46777;47.482;19.054;2022-12-07T12:37:47;11.38;;;10.45;;
58758;SDS011;46777;47.482;19.054;2022-12-07T12:46:36;10.82;;;9.93;;
58758;SDS011;46777;47.482;19.054;2022-12-07T12:54:59;10.35;;;9.45;;
58758;SDS011;46777;47.482;19.054;2022-12-07T12:57:44;10.52;;;9.63;;
58758;SDS011;46777;47.482;19.054;2022-12-07T13:00:28;11.30;;;10.30;;
58758;SDS011;46777;47.482;19.054;2022-12-07T13:03:28;10.65;;;9.75;;
58758;SDS011;46777;47.482;19.054;2022-12-07T13:09:23;11.90;;;10.82;;
58758;SDS011;46777;47.482;19.054;2022-12-07T13:12:13;12.07;;;10.88;;
58758;SDS011;46777;47.482;19.054;2022-12-07T13:14:58;11.93;;;10.80;;
58758;SDS011;46777;47.482;19.054;2022-12-07T13:20:44;11.50;;;10.43;;
58758;SDS011;46777;47.482;19.054;2022-12-07T13:26:17;11.63;;;10.45;;
58758;SDS011;46777;47.482;19.054;2022-12-07T13:29:09;10.60;;;9.55;;
58758;SDS011;46777;47.482;19.054;2022-12-07T13:31:55;11.18;;;10.02;;
58758;SDS011;46777;47.482;19.054;2022-12-07T13:34:41;10.32;;;9.32;;
58758;SDS011;46777;47.482;19.054;2022-12-07T13:37:26;10.73;;;9.60;;
58758;SDS011;46777;47.482;19.054;2022-12-07T13:40:18;10.20;;;9.20;;
58758;SDS011;46777;47.482;19.054;2022-12-07T13:43:04;10.75;;;9.75;;
58758;SDS011;46777;47.482;19.054;2022-12-07T13:45:55;10.45;;;9.43;;
58758;SDS011;46777;47.482;19.054;2022-12-07T13:48:44;11.25;;;10.05;;
58758;SDS011;46777;47.482;19.054;2022-12-07T13:51:29;10.90;;;9.80;;
58758;SDS011;46777;47.482;19.054;2022-12-07T13:54:18;10.60;;;9.40;;
58758;SDS011;46777;47.482;19.054;2022-12-07T13:57:03;10.82;;;9.82;;
58758;SDS011;46777;47.482;19.054;2022-12-07T13:59:47;10.77;;;9.68;;
58758;SDS011;46777;47.482;19.054;2022-12-07T14:02:33;11.13;;;10.02;;
58758;SDS011;46777;47.482;19.054;2022-12-07T14:05:25;11.88;;;10.55;;
58758;SDS011;46777;47.482;19.054;2022-12-07T14:10:55;11.23;;;10.13;;
58758;SDS011;46777;47.482;19.054;2022-12-07T14:14:02;12.50;;;11.20;;
58758;SDS011;46777;47.482;19.054;2022-12-07T14:16:54;12.50;;;11.20;;
58758;SDS011;46777;47.482;19.054;2022-12-07T14:19:47;14.25;;;11.80;;
58758;SDS011;46777;47.482;19.054;2022-12-07T14:22:35;11.95;;;10.75;;
58758;SDS011;46777;47.482;19.054;2022-12-07T14:25:24;13.00;;;11.70;;
58758;SDS011;46777;47.482;19.054;2022-12-07T14:28:09;12.90;;;11.57;;
58758;SDS011;46777;47.482;19.054;2022-12-07T14:31:10;12.68;;;11.48;;
58758;SDS011;46777;47.482;19.054;2022-12-07T14:33:58;12.98;;;11.68;;
58758;SDS011;46777;47.482;19.054;2022-12-07T14:36:42;12.48;;;11.30;;
58758;SDS011;46777;47.482;19.054;2022-12-07T14:39:27;13.70;;;11.82;;
58758;SDS011;46777;47.482;19.054;2022-12-07T14:42:11;12.65;;;11.35;;
58758;SDS011;46777;47.482;19.054;2022-12-07T14:44:56;12.38;;;11.18;;
58758;SDS011;46777;47.482;19.054;2022-12-07T14:47:40;12.27;;;11.07;;
58758;SDS011;46777;47.482;19.054;2022-12-07T14:50:24;13.77;;;12.20;;
58758;SDS011;46777;47.482;19.054;2022-12-07T14:53:16;14.75;;;11.77;;
58758;SDS011;46777;47.482;19.054;2022-12-07T14:56:01;13.00;;;11.70;;
58758;SDS011;46777;47.482;19.054;2022-12-07T14:58:46;14.55;;;12.52;;
58758;SDS011;46777;47.482;19.054;2022-12-07T15:01:32;13.45;;;12.18;;
58758;SDS011;46777;47.482;19.054;2022-12-07T15:04:16;14.13;;;11.93;;
58758;SDS011;46777;47.482;19.054;2022-12-07T15:07:02;13.25;;;11.90;;
58758;SDS011;46777;47.482;19.054;2022-12-07T15:09:48;13.32;;;11.82;;
58758;SDS011;46777;47.482;19.054;2022-12-07T15:12:32;14.02;;;11.95;;
58758;SDS011;46777;47.482;19.054;2022-12-07T15:15:16;13.80;;;12.40;;
58758;SDS011;46777;47.482;19.054;2022-12-07T15:18:01;13.38;;;12.07;;
58758;SDS011;46777;47.482;19.054;2022-12-07T15:20:46;14.43;;;13.02;;
58758;SDS011;46777;47.482;19.054;2022-12-07T15:23:30;14.18;;;12.80;;
58758;SDS011;46777;47.482;19.054;2022-12-07T15:26:15;17.85;;;13.60;;
58758;SDS011;46777;47.482;19.054;2022-12-07T15:28:59;14.88;;;13.38;;
58758;SDS011;46777;47.482;19.054;2022-12-07T15:31:43;14.73;;;13.27;;
58758;SDS011;46777;47.482;19.054;2022-12-07T15:34:29;15.48;;;13.88;;
58758;SDS011;46777;47.482;19.054;2022-12-07T15:37:15;14.60;;;12.82;;
58758;SDS011;46777;47.482;19.054;2022-12-07T15:40:00;14.18;;;12.70;;
58758;SDS011;46777;47.482;19.054;2022-12-07T15:42:44;15.75;;;14.07;;
58758;SDS011;46777;47.482;19.054;2022-12-07T15:45:28;15.90;;;14.32;;
58758;SDS011;46777;47.482;19.054;2022-12-07T15:48:13;15.95;;;13.60;;
58758;SDS011;46777;47.482;19.054;2022-12-07T15:51:03;14.63;;;13.10;;
58758;SDS011;46777;47.482;19.054;2022-12-07T15:53:48;15.35;;;13.82;;
58758;SDS011;46777;47.482;19.054;2022-12-07T15:56:32;14.57;;;13.07;;
58758;SDS011;46777;47.482;19.054;2022-12-07T15:59:17;15.65;;;12.88;;
58758;SDS011;46777;47.482;19.054;2022-12-07T16:02:01;15.50;;;13.90;;
58758;SDS011;46777;47.482;19.054;2022-12-07T16:04:45;16.35;;;13.60;;
58758;SDS011;46777;47.482;19.054;2022-12-07T16:07:30;15.48;;;13.50;;
58758;SDS011;46777;47.482;19.054;2022-12-07T16:10:14;18.17;;;14.02;;
58758;SDS011;46777;47.482;19.054;2022-12-07T16:12:58;14.75;;;13.13;;
58758;SDS011;46777;47.482;19.054;2022-12-07T16:15:42;13.82;;;12.27;;
58758;SDS011;46777;47.482;19.054;2022-12-07T16:18:27;14.18;;;12.77;;
58758;SDS011;46777;47.482;19.054;2022-12-07T16:21:11;14.25;;;12.75;;
58758;SDS011;46777;47.482;19.054;2022-12-07T16:23:57;14.25;;;12.68;;
58758;SDS011;46777;47.482;19.054;2022-12-07T16:26:43;16.35;;;13.77;;
58758;SDS011;46777;47.482;19.054;2022-12-07T16:29:27;15.68;;;13.50;;
58758;SDS011;46777;47.482;19.054;2022-12-07T16:32:11;17.63;;;13.77;;
58758;SDS011;46777;47.482;19.054;2022-12-07T16:34:56;16.65;;;14.13;;
58758;SDS011;46777;47.482;19.054;2022-12-07T16:37:43;17.75;;;15.07;;
58758;SDS011;46777;47.482;19.054;2022-12-07T16:40:27;17.17;;;14.00;;
58758;SDS011;46777;47.482;19.054;2022-12-07T16:43:11;16.40;;;14.65;;
58758;SDS011;46777;47.482;19.054;2022-12-07T16:45:57;16.05;;;14.15;;
58758;SDS011;46777;47.482;19.054;2022-12-07T16:48:41;16.30;;;14.60;;
58758;SDS011;46777;47.482;19.054;2022-12-07T16:51:25;16.40;;;14.68;;
58758;SDS011;46777;47.482;19.054;2022-12-07T16:54:13;16.67;;;14.90;;
58758;SDS011;46777;47.482;19.054;2022-12-07T16:56:57;17.02;;;15.23;;
58758;SDS011;46777;47.482;19.054;2022-12-07T16:59:41;17.95;;;15.20;;
58758;SDS011;46777;47.482;19.054;2022-12-07T17:02:25;16.92;;;15.13;;
58758;SDS011;46777;47.482;19.054;2022-12-07T17:05:10;17.38;;;15.45;;
58758;SDS011;46777;47.482;19.054;2022-12-07T17:07:54;16.70;;;14.73;;
58758;SDS011;46777;47.482;19.054;2022-12-07T17:10:40;17.58;;;15.73;;
58758;SDS011;46777;47.482;19.054;2022-12-07T17:13:25;17.80;;;15.75;;
58758;SDS011;46777;47.482;19.054;2022-12-07T17:16:28;18.45;;;16.45;;
58758;SDS011;46777;47.482;19.054;2022-12-07T17:19:13;17.95;;;15.85;;
58758;SDS011;46777;47.482;19.054;2022-12-07T17:21:57;19.10;;;17.08;;
58758;SDS011;46777;47.482;19.054;2022-12-07T17:24:41;17.90;;;16.00;;
58758;SDS011;46777;47.482;19.054;2022-12-07T17:27:26;17.45;;;15.65;;
58758;SDS011;46777;47.482;19.054;2022-12-07T17:30:11;17.83;;;15.93;;
58758;SDS011;46777;47.482;19.054;2022-12-07T17:32:56;18.75;;;15.63;;
58758;SDS011;46777;47.482;19.054;2022-12-07T17:35:40;17.80;;;16.00;;
58758;SDS011;46777;47.482;19.054;2022-12-07T17:38:25;18.02;;;15.98;;
58758;SDS011;46777;47.482;19.054;2022-12-07T17:41:10;20.65;;;16.27;;
58758;SDS011;46777;47.482;19.054;2022-12-07T17:43:54;22.13;;;17.05;;
58758;SDS011;46777;47.482;19.054;2022-12-07T17:46:39;18.38;;;16.48;;